createdAt,value
2023-01-13T00:01:10.171Z,12.43
2023-01-13T00:03:39.871Z,9.00
2023-01-13T00:06:09.049Z,5.77
2023-01-13T00:08:37.210Z,4.70
2023-01-13T00:11:05.286Z,4.70
2023-01-13T00:13:35.416Z,4.20
2023-01-13T00:16:06.616Z,5.37
2023-01-13T00:18:36.984Z,5.10
2023-01-13T00:21:08.836Z,5.30
2023-01-13T00:23:37.225Z,5.00
2023-01-13T00:26:08.586Z,6.63
2023-01-13T00:28:37.336Z,5.23
2023-01-13T00:31:09.596Z,5.47
2023-01-13T00:33:38.024Z,5.17
2023-01-13T00:36:09.878Z,6.10
2023-01-13T00:38:39.068Z,5.30
2023-01-13T00:41:09.339Z,4.90
2023-01-13T00:43:54.987Z,4.97
2023-01-13T00:46:23.521Z,5.80
2023-01-13T00:48:51.618Z,4.90
2023-01-13T00:51:22.725Z,6.07
2023-01-13T00:53:52.399Z,5.27
2023-01-13T00:56:38.410Z,6.50
2023-01-13T00:59:07.680Z,4.80
2023-01-13T01:01:36.061Z,5.80
2023-01-13T01:04:04.134Z,4.40
2023-01-13T01:06:33.630Z,4.20
2023-01-13T01:09:01.942Z,5.67
2023-01-13T01:11:31.718Z,7.17
2023-01-13T01:14:02.128Z,4.83
2023-01-13T01:16:31.947Z,6.27
2023-01-13T01:19:01.456Z,5.43
2023-01-13T01:21:30.337Z,7.27
2023-01-13T01:24:01.936Z,4.60
2023-01-13T01:26:31.594Z,5.63
2023-01-13T01:29:02.209Z,5.03
2023-01-13T01:31:32.912Z,5.53
2023-01-13T01:34:01.761Z,5.83
2023-01-13T01:36:30.565Z,5.60
2023-01-13T01:39:00.941Z,4.63
2023-01-13T01:41:31.672Z,7.07
2023-01-13T01:44:00.447Z,4.97
2023-01-13T01:46:30.767Z,5.77
2023-01-13T01:49:04.633Z,5.60
2023-01-13T01:51:36.507Z,4.83
2023-01-13T01:54:11.482Z,5.07
2023-01-13T01:56:42.895Z,5.70
2023-01-13T01:59:11.617Z,5.80
2023-01-13T02:01:41.776Z,5.83
2023-01-13T02:04:15.421Z,4.93
2023-01-13T02:06:45.541Z,4.97
2023-01-13T02:09:16.083Z,5.63
2023-01-13T02:12:01.591Z,5.23
2023-01-13T02:14:31.782Z,5.90
2023-01-13T02:17:15.819Z,5.67
2023-01-13T02:20:25.455Z,5.23
2023-01-13T02:23:52.280Z,5.53
2023-01-13T02:26:50.083Z,8.23
2023-01-13T02:29:56.833Z,5.10
2023-01-13T02:32:31.191Z,4.93
2023-01-13T02:35:07.945Z,5.90
2023-01-13T02:37:40.467Z,5.00
2023-01-13T02:40:13.561Z,6.90
2023-01-13T02:43:06.035Z,5.10
2023-01-13T02:45:40.881Z,4.97
2023-01-13T02:48:12.174Z,4.93
2023-01-13T02:50:45.544Z,5.30
2023-01-13T02:53:19.501Z,4.73
2023-01-13T02:56:07.281Z,4.70
2023-01-13T02:58:37.550Z,6.47
2023-01-13T03:01:10.704Z,5.37
2023-01-13T03:03:38.872Z,5.17
2023-01-13T03:06:26.015Z,5.30
2023-01-13T03:09:01.119Z,7.77
2023-01-13T03:11:36.243Z,4.70
2023-01-13T03:14:19.798Z,6.53
2023-01-13T03:17:00.714Z,5.33
2023-01-13T03:19:38.445Z,7.13
2023-01-13T03:22:15.706Z,7.03
2023-01-13T03:24:48.144Z,6.17
2023-01-13T03:27:21.802Z,6.73
2023-01-13T03:29:56.534Z,6.10
2023-01-13T03:32:29.400Z,6.63
2023-01-13T03:35:03.733Z,5.60
2023-01-13T03:37:36.321Z,8.47
2023-01-13T03:40:10.011Z,7.03
2023-01-13T03:42:42.068Z,4.53
2023-01-13T03:45:15.073Z,5.67
2023-01-13T03:47:52.391Z,5.30
2023-01-13T03:50:23.838Z,5.10
2023-01-13T03:52:57.396Z,6.83
2023-01-13T03:55:30.691Z,6.00
2023-01-13T03:58:03.244Z,9.47
2023-01-13T04:00:38.779Z,5.33
2023-01-13T04:03:11.315Z,5.00
2023-01-13T04:05:43.413Z,4.70
2023-01-13T04:08:18.042Z,7.07
2023-01-13T04:10:54.612Z,5.23
2023-01-13T04:13:25.937Z,5.97
2023-01-13T04:15:54.145Z,5.77
2023-01-13T04:18:26.316Z,5.07
2023-01-13T04:20:56.251Z,7.17
2023-01-13T04:23:32.829Z,5.43
2023-01-13T04:26:01.569Z,6.23
2023-01-13T04:28:29.761Z,5.60
2023-01-13T04:30:57.937Z,5.53
2023-01-13T04:33:28.540Z,5.53
2023-01-13T04:35:56.657Z,4.70
2023-01-13T04:38:24.876Z,5.80
2023-01-13T04:40:53.063Z,4.83
2023-01-13T04:43:21.128Z,5.43
2023-01-13T04:45:49.263Z,15.43
2023-01-13T04:51:04.448Z,5.70
2023-01-13T04:53:32.546Z,5.23
2023-01-13T04:56:00.874Z,5.23
2023-01-13T04:58:28.999Z,5.60
2023-01-13T05:00:57.025Z,9.87
2023-01-13T05:03:26.802Z,7.90
2023-01-13T05:05:54.895Z,10.23
2023-01-13T05:08:24.411Z,7.30
2023-01-13T05:10:52.499Z,9.40
2023-01-13T05:13:38.368Z,5.47
2023-01-13T05:16:24.542Z,11.60
2023-01-13T05:18:52.725Z,8.90
2023-01-13T05:21:38.203Z,5.67
2023-01-13T05:24:27.609Z,9.10
2023-01-13T05:26:55.701Z,5.67
2023-01-13T05:29:23.811Z,4.73
2023-01-13T05:31:51.839Z,5.50
2023-01-13T05:34:20.082Z,7.47
2023-01-13T05:36:48.220Z,6.70
2023-01-13T05:39:17.811Z,5.17
2023-01-13T05:42:03.592Z,5.10
2023-01-13T05:44:31.743Z,7.17
2023-01-13T05:47:00.056Z,12.30
2023-01-13T05:49:28.259Z,6.17
2023-01-13T05:51:56.247Z,4.97
2023-01-13T05:54:25.785Z,7.73
2023-01-13T05:56:53.961Z,6.33
2023-01-13T05:59:22.113Z,10.23
2023-01-13T06:01:50.719Z,5.93
2023-01-13T06:04:18.825Z,6.37
2023-01-13T06:06:48.572Z,4.23
2023-01-13T06:09:16.970Z,4.73
2023-01-13T06:11:46.590Z,4.33
2023-01-13T06:14:15.004Z,8.57
2023-01-13T06:16:43.263Z,5.23
2023-01-13T06:19:13.213Z,3.73
2023-01-13T06:21:41.788Z,4.87
2023-01-13T06:24:10.625Z,4.17
2023-01-13T06:26:41.570Z,4.93
2023-01-13T06:29:14.135Z,9.57
2023-01-13T06:31:42.517Z,4.63
2023-01-13T06:34:14.638Z,7.57
2023-01-13T06:36:47.030Z,5.37
2023-01-13T06:39:19.315Z,9.93
2023-01-13T06:42:11.202Z,5.37
2023-01-13T06:44:40.960Z,10.13
2023-01-13T06:47:09.830Z,10.53
2023-01-13T06:49:37.910Z,12.00
2023-01-13T06:52:06.584Z,6.50
2023-01-13T06:54:35.591Z,6.40
2023-01-13T06:57:04.154Z,10.87
2023-01-13T06:59:34.475Z,10.27
2023-01-13T07:02:04.193Z,9.50
2023-01-13T07:04:32.295Z,7.73
2023-01-13T07:07:00.571Z,7.27
2023-01-13T07:09:28.670Z,9.13
2023-01-13T07:11:56.659Z,7.87
2023-01-13T07:14:42.196Z,6.77
2023-01-13T07:17:11.837Z,8.37
2023-01-13T07:19:39.875Z,5.30
2023-01-13T07:22:08.126Z,7.77
2023-01-13T07:24:36.186Z,9.77
2023-01-13T07:27:04.395Z,13.87
2023-01-13T07:29:32.421Z,8.80
2023-01-13T07:32:01.468Z,12.57
2023-01-13T07:34:30.988Z,12.93
2023-01-13T07:36:59.097Z,11.47
2023-01-13T07:39:27.215Z,11.77
2023-01-13T07:42:13.028Z,9.70
2023-01-13T07:44:41.082Z,9.30
2023-01-13T07:47:11.266Z,16.20
2023-01-13T07:49:40.776Z,10.23
2023-01-13T07:52:09.096Z,12.03
2023-01-13T07:54:40.897Z,11.17
2023-01-13T07:57:09.241Z,10.17
2023-01-13T07:59:37.616Z,13.87
2023-01-13T08:02:05.877Z,11.37
2023-01-13T08:04:34.942Z,17.53
2023-01-13T08:07:05.641Z,14.97
2023-01-13T08:09:34.149Z,14.40
2023-01-13T08:12:15.929Z,15.00
2023-01-13T08:14:46.540Z,19.97
2023-01-13T08:17:14.691Z,16.53
2023-01-13T08:19:42.831Z,13.70
2023-01-13T08:22:12.275Z,16.77
2023-01-13T08:24:40.384Z,16.87
2023-01-13T08:27:08.632Z,12.53
2023-01-13T08:29:36.723Z,19.07
2023-01-13T08:32:05.172Z,13.83
2023-01-13T08:34:33.391Z,19.23
2023-01-13T08:37:01.592Z,13.50
2023-01-13T08:39:31.150Z,17.20
2023-01-13T08:41:59.565Z,20.97
2023-01-13T08:44:29.002Z,15.87
2023-01-13T08:46:57.414Z,21.70
2023-01-13T08:49:26.281Z,18.63
2023-01-13T08:51:54.985Z,19.63
2023-01-13T08:54:23.116Z,23.23
2023-01-13T08:56:52.763Z,18.30
2023-01-13T08:59:21.428Z,20.77
2023-01-13T09:01:49.596Z,13.97
2023-01-13T09:04:19.890Z,13.13
2023-01-13T09:06:49.359Z,15.63
2023-01-13T09:09:17.910Z,13.33
2023-01-13T09:12:05.850Z,11.10
2023-01-13T09:14:38.442Z,20.73
2023-01-13T09:17:07.610Z,14.83
2023-01-13T09:19:36.231Z,16.03
2023-01-13T09:22:04.595Z,15.60
2023-01-13T09:24:33.004Z,17.60
2023-01-13T09:27:01.322Z,14.03
2023-01-13T09:29:29.748Z,17.87
2023-01-13T09:31:59.601Z,16.40
2023-01-13T09:34:45.211Z,17.63
2023-01-13T09:37:13.426Z,25.73
2023-01-13T09:39:41.585Z,18.60
2023-01-13T09:42:37.854Z,14.57
2023-01-13T09:45:10.115Z,16.23
2023-01-13T09:47:47.421Z,15.40
2023-01-13T09:50:30.764Z,13.37
2023-01-13T09:53:00.780Z,17.77
2023-01-13T09:55:36.758Z,18.17
2023-01-13T09:58:12.938Z,14.87
2023-01-13T10:00:47.242Z,18.00
2023-01-13T10:03:26.617Z,15.57
2023-01-13T10:06:02.170Z,13.60
2023-01-13T10:08:34.747Z,17.40
2023-01-13T10:11:29.977Z,13.23
2023-01-13T10:13:59.985Z,15.80
2023-01-13T10:16:36.801Z,13.80
2023-01-13T10:19:13.134Z,15.23
2023-01-13T10:22:09.882Z,15.80
2023-01-13T10:24:59.821Z,12.47
2023-01-13T10:27:34.645Z,14.63
2023-01-13T10:30:13.057Z,17.30
2023-01-13T10:32:44.901Z,17.30
2023-01-13T10:35:14.540Z,13.97
2023-01-13T10:37:57.735Z,14.90
2023-01-13T10:40:26.772Z,16.17
2023-01-13T10:43:07.106Z,16.27
2023-01-13T10:45:35.331Z,15.13
2023-01-13T10:48:14.115Z,15.93
2023-01-13T10:50:44.292Z,14.57
2023-01-13T10:53:25.368Z,12.57
2023-01-13T10:56:01.789Z,12.53
2023-01-13T10:58:30.447Z,17.93
2023-01-13T11:01:03.408Z,18.90
2023-01-13T11:03:41.692Z,17.53
2023-01-13T11:06:21.158Z,17.13
2023-01-13T11:08:51.409Z,17.43
2023-01-13T11:11:44.770Z,18.17
2023-01-13T11:14:43.198Z,18.87
2023-01-13T11:17:30.039Z,18.03
2023-01-13T11:20:06.796Z,22.57
2023-01-13T11:22:40.989Z,24.10
2023-01-13T11:25:15.584Z,18.03
2023-01-13T11:27:47.706Z,15.67
2023-01-13T11:30:26.265Z,15.67
2023-01-13T11:33:16.310Z,16.53
2023-01-13T11:35:49.936Z,17.93
2023-01-13T11:38:29.438Z,16.57
2023-01-13T11:41:01.889Z,23.27
2023-01-13T11:43:35.738Z,24.67
2023-01-13T11:46:04.217Z,22.07
2023-01-13T11:48:37.198Z,16.97
2023-01-13T11:51:11.670Z,16.80
2023-01-13T11:53:55.192Z,18.87
2023-01-13T11:56:44.221Z,15.10
2023-01-13T11:59:44.671Z,16.33
2023-01-13T12:02:28.925Z,12.60
2023-01-13T12:05:10.201Z,16.57
2023-01-13T12:07:45.235Z,17.23
2023-01-13T12:10:26.115Z,21.67
2023-01-13T12:13:04.925Z,13.70
2023-01-13T12:15:50.737Z,13.70
2023-01-13T12:18:34.242Z,14.60
2023-01-13T12:21:16.059Z,17.07
2023-01-13T12:23:52.053Z,16.33
2023-01-13T12:26:21.625Z,14.13
2023-01-13T12:28:54.695Z,18.00
2023-01-13T12:31:25.018Z,16.20
2023-01-13T12:34:09.019Z,19.20
2023-01-13T12:36:53.944Z,18.27
2023-01-13T12:39:31.066Z,15.73
2023-01-13T12:42:25.675Z,17.80
2023-01-13T12:45:22.560Z,17.37
2023-01-13T12:47:50.989Z,18.07
2023-01-13T12:50:42.014Z,17.53
2023-01-13T12:53:34.940Z,17.63
2023-01-13T12:56:36.204Z,19.60
2023-01-13T12:59:37.086Z,18.60
2023-01-13T13:02:27.162Z,25.43
2023-01-13T13:04:57.321Z,18.67
2023-01-13T13:07:35.197Z,21.13
2023-01-13T13:10:13.433Z,16.53
2023-01-13T13:13:16.624Z,17.07
2023-01-13T13:15:47.411Z,12.40
2023-01-13T13:18:27.250Z,13.97
2023-01-13T13:21:04.295Z,14.47
2023-01-13T13:24:05.329Z,12.17
2023-01-13T13:26:46.891Z,12.00
2023-01-13T13:29:36.263Z,13.17
2023-01-13T13:32:26.255Z,13.77
2023-01-13T13:35:08.879Z,14.80
2023-01-13T13:38:10.215Z,17.50
2023-01-13T13:40:59.762Z,18.43
2023-01-13T13:43:46.683Z,15.80
2023-01-13T13:46:43.285Z,14.20
2023-01-13T13:49:13.444Z,24.07
2023-01-13T13:51:46.505Z,16.87
2023-01-13T13:54:18.134Z,18.03
2023-01-13T13:56:48.824Z,14.73
2023-01-13T13:59:21.187Z,15.47
2023-01-13T14:02:00.823Z,19.27
2023-01-13T14:04:31.991Z,17.80
2023-01-13T14:07:01.943Z,19.07
2023-01-13T14:09:40.122Z,21.53
2023-01-13T14:12:17.916Z,20.27
2023-01-13T14:14:47.387Z,19.23
2023-01-13T14:17:25.174Z,20.13
2023-01-13T14:20:05.005Z,16.17
2023-01-13T14:22:33.624Z,16.03
2023-01-13T14:25:02.128Z,17.87
2023-01-13T14:27:31.902Z,16.57
2023-01-13T14:30:01.567Z,24.70
2023-01-13T14:32:38.644Z,21.03
2023-01-13T14:35:09.211Z,18.20
2023-01-13T14:37:39.773Z,18.80
2023-01-13T14:40:28.655Z,18.73
2023-01-13T14:43:00.266Z,27.07
2023-01-13T14:45:29.474Z,30.57
2023-01-13T14:47:59.959Z,30.37
2023-01-13T14:50:34.003Z,25.30
2023-01-13T14:53:05.025Z,27.97
2023-01-13T14:55:36.497Z,25.77
2023-01-13T14:58:28.312Z,35.00
2023-01-13T15:01:28.932Z,26.43
2023-01-13T15:04:16.220Z,30.20
2023-01-13T15:06:50.787Z,28.13
2023-01-13T15:09:26.252Z,36.27
2023-01-13T15:11:56.357Z,51.50
2023-01-13T15:14:30.509Z,37.60
2023-01-13T15:16:58.736Z,66.50
2023-01-13T15:19:26.818Z,36.23
2023-01-13T15:21:56.350Z,33.00
2023-01-13T15:24:24.450Z,27.80
2023-01-13T15:26:52.681Z,31.33
2023-01-13T15:29:22.021Z,27.10
2023-01-13T15:31:50.987Z,31.80
2023-01-13T15:34:19.096Z,29.63
2023-01-13T15:36:47.327Z,35.63
2023-01-13T15:39:17.197Z,29.00
2023-01-13T15:42:02.963Z,33.23
2023-01-13T15:44:48.427Z,27.37
2023-01-13T15:47:16.844Z,25.67
2023-01-13T15:49:46.510Z,29.50
2023-01-13T15:52:21.515Z,73.73
2023-01-13T16:08:56.630Z,33.57
2023-01-13T16:11:24.739Z,32.03
2023-01-13T16:13:52.806Z,36.10
2023-01-13T16:16:23.245Z,32.47
2023-01-13T16:18:52.101Z,32.27
2023-01-13T16:21:20.679Z,31.90
2023-01-13T16:23:49.719Z,36.37
2023-01-13T16:26:24.487Z,35.07
2023-01-13T16:28:54.135Z,35.23
2023-01-13T16:31:27.329Z,31.93
2023-01-13T16:33:55.760Z,32.93
2023-01-13T16:36:24.161Z,28.80
2023-01-13T16:38:53.902Z,29.13
2023-01-13T16:41:25.169Z,34.90
2023-01-13T16:43:53.962Z,35.67
2023-01-13T16:46:24.977Z,36.60
2023-01-13T16:48:54.529Z,55.57
2023-01-13T16:51:23.675Z,40.93
2023-01-13T16:53:52.184Z,44.67
2023-01-13T16:56:27.406Z,36.63
2023-01-13T16:58:57.096Z,37.33
2023-01-13T17:01:28.266Z,43.83
2023-01-13T17:03:58.021Z,42.70
2023-01-13T17:06:33.651Z,36.80
2023-01-13T17:09:02.815Z,47.57
2023-01-13T17:11:32.570Z,44.77
2023-01-13T17:14:00.866Z,48.57
2023-01-13T17:16:44.021Z,48.87
2023-01-13T17:19:13.199Z,55.70
2023-01-13T17:21:41.414Z,61.40
2023-01-13T17:24:10.789Z,63.53
2023-01-13T17:26:44.124Z,71.97
2023-01-13T17:29:15.523Z,106.43
2023-01-13T17:31:43.851Z,113.33
2023-01-13T17:34:13.384Z,153.03
2023-01-13T17:36:43.473Z,185.17
2023-01-13T17:39:17.488Z,161.40
2023-01-13T17:41:47.676Z,110.73
2023-01-13T17:44:16.317Z,88.00
2023-01-13T17:46:44.877Z,81.10
2023-01-13T17:49:13.562Z,85.13
2023-01-13T17:51:41.666Z,75.43
2023-01-13T17:54:12.307Z,67.43
2023-01-13T17:56:41.244Z,58.70
2023-01-13T17:59:12.665Z,55.37
2023-01-13T18:01:41.262Z,56.47
2023-01-13T18:04:15.014Z,54.47
2023-01-13T18:06:43.499Z,55.90
2023-01-13T18:09:12.022Z,67.27
2023-01-13T18:11:40.311Z,51.13
2023-01-13T18:14:09.580Z,64.80
2023-01-13T18:16:39.899Z,52.90
2023-01-13T18:19:25.376Z,58.70
2023-01-13T18:22:11.282Z,55.13
2023-01-13T18:24:56.750Z,61.60
2023-01-13T18:27:31.221Z,58.53
2023-01-13T18:30:01.452Z,49.50
2023-01-13T18:32:33.668Z,55.47
2023-01-13T18:35:06.755Z,52.13
2023-01-13T18:37:38.710Z,59.03
2023-01-13T18:40:09.429Z,53.20
2023-01-13T18:42:52.009Z,52.83
2023-01-13T18:45:20.804Z,55.03
2023-01-13T18:47:52.986Z,57.67
2023-01-13T18:50:21.843Z,54.57
2023-01-13T18:52:50.066Z,58.63
2023-01-13T18:55:18.766Z,57.70
2023-01-13T18:57:47.193Z,58.30
2023-01-13T19:00:17.971Z,53.50
2023-01-13T19:02:47.339Z,56.97
2023-01-13T19:05:17.515Z,60.87
2023-01-13T19:07:51.036Z,76.73
2023-01-13T19:10:19.798Z,58.97
2023-01-13T19:12:48.029Z,58.40
2023-01-13T19:15:16.422Z,51.93
2023-01-13T19:17:45.178Z,68.10
2023-01-13T19:20:14.111Z,63.83
2023-01-13T19:22:51.421Z,60.17
2023-01-13T19:25:19.686Z,53.57
2023-01-13T19:27:47.898Z,49.90
2023-01-13T19:30:17.497Z,59.33
2023-01-13T19:32:45.876Z,63.73
2023-01-13T19:35:17.709Z,57.63
2023-01-13T19:37:47.520Z,61.50
2023-01-13T19:40:16.035Z,67.43
2023-01-13T19:43:02.797Z,63.17
2023-01-13T19:45:34.188Z,74.27
2023-01-13T19:48:05.335Z,77.93
2023-01-13T19:50:37.829Z,54.73
2023-01-13T19:53:08.219Z,53.67
2023-01-13T19:55:36.733Z,42.27
2023-01-13T19:58:05.500Z,40.10
2023-01-13T20:00:35.013Z,44.53
2023-01-13T20:03:08.073Z,50.87
2023-01-13T20:05:36.374Z,50.13
2023-01-13T20:08:04.858Z,53.27
2023-01-13T20:10:34.457Z,46.50
2023-01-13T20:13:08.296Z,50.63
2023-01-13T20:15:36.718Z,45.83
2023-01-13T20:18:05.208Z,46.50
2023-01-13T20:20:33.453Z,48.00
2023-01-13T20:23:01.606Z,45.10
2023-01-13T20:25:30.925Z,39.00
2023-01-13T20:28:02.289Z,35.63
2023-01-13T20:30:30.533Z,34.00
2023-01-13T20:32:58.911Z,36.87
2023-01-13T20:35:29.688Z,48.97
2023-01-13T20:37:58.462Z,63.57
2023-01-13T20:40:26.581Z,32.50
2023-01-13T20:42:53.902Z,38.37
2023-01-13T20:45:23.511Z,32.87
2023-01-13T20:47:51.833Z,19.17
2023-01-13T20:50:20.220Z,28.13
2023-01-13T20:52:49.408Z,18.57
2023-01-13T20:55:19.315Z,16.27
2023-01-13T20:57:50.355Z,15.27
2023-01-13T21:00:20.158Z,18.70
2023-01-13T21:02:49.828Z,12.87
2023-01-13T21:05:18.414Z,13.93
2023-01-13T21:07:47.040Z,14.30
2023-01-13T21:10:15.435Z,11.73
2023-01-13T21:13:03.041Z,11.60
2023-01-13T21:15:31.411Z,11.87
2023-01-13T21:18:18.169Z,13.43
2023-01-13T21:20:46.422Z,12.37
2023-01-13T21:23:14.732Z,15.33
2023-01-13T21:25:43.423Z,10.83
2023-01-13T21:28:11.928Z,11.57
2023-01-13T21:30:40.751Z,6.03
2023-01-13T21:33:14.243Z,9.27
2023-01-13T21:35:42.813Z,6.80
2023-01-13T21:38:12.437Z,7.33
2023-01-13T21:40:40.798Z,6.73
2023-01-13T21:43:30.249Z,8.13
2023-01-13T21:46:30.641Z,9.53
2023-01-13T21:49:00.356Z,7.60
2023-01-13T21:51:28.984Z,13.73
2023-01-13T21:53:57.769Z,10.87
2023-01-13T21:56:26.478Z,9.30
2023-01-13T21:59:00.255Z,10.87
2023-01-13T22:01:28.658Z,8.90
2023-01-13T22:04:15.434Z,9.30
2023-01-13T22:06:44.978Z,9.40
2023-01-13T22:09:13.395Z,8.83
2023-01-13T22:11:41.545Z,11.37
2023-01-13T22:14:11.139Z,13.07
2023-01-13T22:16:42.528Z,13.90
2023-01-13T22:19:12.328Z,10.20
2023-01-13T22:21:40.720Z,11.63
2023-01-13T22:24:11.609Z,12.27
2023-01-13T22:26:39.792Z,12.77
2023-01-13T22:29:08.029Z,8.63
2023-01-13T22:31:36.356Z,10.30
2023-01-13T22:34:04.715Z,10.03
2023-01-13T22:36:32.880Z,9.67
2023-01-13T22:39:04.814Z,10.97
2023-01-13T22:41:34.559Z,9.63
2023-01-13T22:44:02.741Z,13.87
2023-01-13T22:46:30.926Z,11.13
2023-01-13T22:48:59.184Z,10.87
2023-01-13T22:51:27.694Z,11.63
2023-01-13T22:53:56.040Z,9.47
2023-01-13T22:56:25.667Z,11.47
2023-01-13T22:59:01.722Z,11.77
2023-01-13T23:01:32.393Z,11.20
2023-01-13T23:04:01.163Z,12.57
2023-01-13T23:06:31.645Z,13.13
2023-01-13T23:08:59.984Z,10.53
2023-01-13T23:11:30.875Z,10.00
2023-01-13T23:14:01.626Z,11.50
2023-01-13T23:16:31.719Z,10.67
2023-01-13T23:18:59.990Z,10.30
2023-01-13T23:21:30.613Z,11.67
2023-01-13T23:23:59.297Z,10.83
2023-01-13T23:26:28.510Z,9.30
2023-01-13T23:29:01.535Z,9.97
2023-01-13T23:31:30.063Z,10.63
2023-01-13T23:33:58.802Z,9.07
2023-01-13T23:36:29.066Z,11.80
2023-01-13T23:38:59.213Z,10.97
2023-01-13T23:41:32.077Z,10.20
2023-01-13T23:44:02.092Z,9.40
2023-01-13T23:46:31.438Z,9.43
2023-01-13T23:49:00.098Z,15.63
2023-01-13T23:51:30.074Z,10.30
2023-01-13T23:53:58.878Z,10.30
2023-01-13T23:56:29.834Z,11.50
2023-01-13T23:58:58.684Z,10.53
